Tampa Palms, Florida
Current Conditions -  °F | °C
As of 5:35 PM on Sunday 21 Dec 2014 (Local Time) from KVDF Reporting Station
Haze Haze  
Wind Chill: 70°   Ceiling: 7000
Heat Index: 70°   Visibility: 5mi
Dew Point: 66°   Wind: 0mph
Humidity: 88%   Direction: NA
Pressure: 30.03"   Gusts: NA
Location:  28.1246°N, 82.3645°W
Report Text: KVDF 212235Z AUTO 00000KT 5SM BR OVC070 21/19 A3003 RMK AO2 P0001
Loading
Personal Weather Stations






























Interactive Weather Map New forecast layout! Learn more

10-Day Weather Forecast

Advertisements
Track Severe Weather on mobile